»·PEaware :: N20HJ KBFL-KPMD

N20HJ :: KBFL-KPMD

FLIGHT INFORMATION

Flight Status: Arrived
Operator: Privately registered:
United States
More flights under this callsign
Pilot: Hogarth D. (20677)
Aircraft: Unknown
(DA62)
More flights by this aircraft type
Origin: KBFL Meadows
United States
Destination: KPMD Palmdale AF Plant 42
United States
More flights between these airports :: More routes between these airports
Route: +MURDY LAMPE V23 GMN V137 PMD
File this flight plan on PilotEdge
Remarks:
Altitude:
(Current/Filed)
10,000ft
Speed:
(Current/Filed)
160kts
Departed: 31-Dec-18 11:13 AM
Arrived: 31-Dec-18 12:04 PM
Distance/Time
Traveled:
68nm/0:51
Distance/Time
To Go:
Arrived

Flight Plot

Page will automatically refresh every two minutes.

Flight plan parsing failed; only flown route is shown


Map Options




Map Legend


Flown Route
Filed Route
Departure Airport
Arrival Airport
Navaid (VOR, NDB)
Fix

Horizontal Profiles

Position Reports

Time Latitude Longitude Heading Altitude Ground
Speed
31-Dec-18 10:50 35.429368 -119.046105 226 494ft 0kts
31-Dec-18 10:51 35.429368 -119.046105 226 494ft 0kts
31-Dec-18 10:52 35.429368 -119.046105 226 494ft 0kts
31-Dec-18 10:53 35.429368 -119.046105 226 494ft 0kts
31-Dec-18 10:54 35.429368 -119.046105 226 494ft 0kts
31-Dec-18 10:55 35.429368 -119.046105 226 494ft 0kts
31-Dec-18 10:56 35.429368 -119.046105 226 494ft 0kts
31-Dec-18 10:57 35.429368 -119.046105 226 494ft 0kts
31-Dec-18 10:58 35.429368 -119.046105 226 494ft 0kts
31-Dec-18 10:59 35.429368 -119.046105 226 494ft 0kts
31-Dec-18 11:00 35.429368 -119.046105 226 494ft 0kts
31-Dec-18 11:01 35.429368 -119.046105 226 494ft 0kts
31-Dec-18 11:02 35.429368 -119.046105 226 494ft 0kts
31-Dec-18 11:03 35.429368 -119.046105 226 494ft 0kts
31-Dec-18 11:04 35.429368 -119.046105 226 494ft 0kts
31-Dec-18 11:05 35.429368 -119.046105 226 494ft 0kts
31-Dec-18 11:06 35.429368 -119.046105 226 494ft 0kts
31-Dec-18 11:07 35.429314 -119.047080 156 492ft 3kts
31-Dec-18 11:08 35.425379 -119.044658 265 478ft 4kts
31-Dec-18 11:09 35.425377 -119.044677 264 478ft 0kts
31-Dec-18 11:10 35.425377 -119.044677 264 478ft 0kts
31-Dec-18 11:11 35.425942 -119.046726 313 476ft 22kts
31-Dec-18 11:12 35.443356 -119.068656 312 867ft 119kts
31-Dec-18 11:13 35.466321 -119.099994 312 1906ft 124kts
31-Dec-18 11:14 35.489409 -119.131357 311 2920ft 125kts
31-Dec-18 11:15 35.516459 -119.168064 311 3485ft 134kts
31-Dec-18 11:16 35.534856 -119.192971 311 4433ft 122kts
31-Dec-18 11:17 35.556284 -119.222727 295 5374ft 125kts
31-Dec-18 11:18 35.534633 -119.236494 150 6347ft 126kts
31-Dec-18 11:19 35.505311 -119.212841 144 7316ft 128kts
31-Dec-18 11:20 35.476296 -119.187252 144 8274ft 130kts
31-Dec-18 11:21 35.446884 -119.161233 144 9215ft 132kts
31-Dec-18 11:22 35.416909 -119.134710 144 10145ft 134kts
31-Dec-18 11:23 35.386749 -119.107719 144 11012ft 139kts
31-Dec-18 11:24 35.350664 -119.075767 144 11050ft 175kts
31-Dec-18 11:25 35.310361 -119.040145 144 11046ft 180kts
31-Dec-18 11:26 35.265375 -119.015254 166 11045ft 181kts
31-Dec-18 11:27 35.216233 -119.002490 168 11045ft 181kts
31-Dec-18 11:28 35.167790 -118.986964 164 11045ft 181kts
31-Dec-18 11:29 35.119394 -118.970179 164 11045ft 181kts
31-Dec-18 11:30 35.071114 -118.953462 164 11045ft 181kts
31-Dec-18 11:31 35.022813 -118.936759 164 11045ft 181kts
31-Dec-18 11:32 34.974483 -118.920065 164 11045ft 181kts
31-Dec-18 11:33 34.926235 -118.903415 164 11045ft 181kts
31-Dec-18 11:34 34.879283 -118.887237 164 11008ft 182kts
31-Dec-18 11:35 34.830631 -118.870494 164 11009ft 181kts
31-Dec-18 11:36 34.798374 -118.831321 106 11010ft 181kts
31-Dec-18 11:37 34.785202 -118.772540 104 11009ft 181kts
31-Dec-18 11:38 34.772444 -118.713250 104 11009ft 181kts
31-Dec-18 11:39 34.759731 -118.653997 104 11009ft 181kts
31-Dec-18 11:40 34.746981 -118.594698 104 11009ft 181kts
31-Dec-18 11:41 34.734208 -118.535434 104 11009ft 181kts
31-Dec-18 11:42 34.721424 -118.476262 104 11009ft 181kts
31-Dec-18 11:43 34.708633 -118.417212 104 11009ft 181kts
31-Dec-18 11:44 34.695792 -118.358077 104 11009ft 181kts
31-Dec-18 11:45 34.693389 -118.312277 72 11012ft 180kts
31-Dec-18 11:46 34.708817 -118.254229 72 11009ft 181kts
31-Dec-18 11:47 34.724387 -118.195938 72 11009ft 181kts
31-Dec-18 11:48 34.739918 -118.137813 72 11009ft 181kts
31-Dec-18 11:49 34.755498 -118.079531 72 11009ft 181kts
31-Dec-18 11:50 34.771093 -118.021216 71 11009ft 181kts
31-Dec-18 11:51 34.786636 -117.963118 71 11009ft 181kts
31-Dec-18 11:52 34.775106 -117.908702 121 10411ft 170kts
31-Dec-18 11:53 34.750789 -117.861214 121 9504ft 163kts
31-Dec-18 11:54 34.727098 -117.814975 121 8603ft 160kts
31-Dec-18 11:55 34.703057 -117.768047 122 7460ft 167kts
31-Dec-18 11:56 34.667181 -117.781940 231 6256ft 167kts
31-Dec-18 11:57 34.646099 -117.830602 264 5077ft 169kts
31-Dec-18 11:58 34.642847 -117.886230 266 4858ft 167kts
31-Dec-18 12:00 34.639959 -117.943720 268 4513ft 159kts
31-Dec-18 12:01 34.636259 -117.999817 272 3513ft 163kts
31-Dec-18 12:02 34.634552 -118.040867 266 3080ft 108kts
31-Dec-18 12:03 34.632624 -118.076208 266 2499ft 87kts
31-Dec-18 12:04 34.632041 -118.086576 267 2506ft 0kts

Navigation Log

Ident Type
Flight plan parsing failed, navigation log unavailable